Share

Fairpoint, OH

9:00 AM EDT on April 23, 2014 (GMT -0400)
Crawford Heights (KOHMARTI3) Elev 1109 ft | 40.09 °N, 80.75 °W | Change Station

Current weather conditions updated 4 minutes ago

Overcast
Overcast
41.9 °F
Feels Like 40 °F
N
3.2
Wind Variable Wind from NNE
Sunrise 6:34 AM
Sunset 8:10 PM
Moon Last Quarter

Today is forecast to be Much Cooler than yesterday.

Pressure 29.99 in
Visibility 10.0 miles
Clouds Overcast 2600 ft
Windchill 40 °F
Dew Point 33 °F
Humidity 71%
Rainfall 0.00 in
Snow Depth Not available.
UV 1 out of 16
Pollen 10.80 out of 12
Air Quality Not available.
Flu Activity Local Activity
METAR KHLG 231253Z 31014G21KT 10SM OVC026 04/M01 A2997 RMK AO2 SLP156 T00441011

More Conditions Fewer Conditions

Pressure 29.99 in
Visibility 10.0 miles
Clouds Overcast 2600 ft
Windchill 40 °F
Dew Point 33 °F
Humidity 71%
Rainfall 0.00 in
Snow Depth Not available.
UV 1 out of 16
Pollen 10.80 out of 12
Air Quality Not available.
Flu Activity Local Activity
METAR KHLG 231253Z 31014G21KT 10SM OVC026 04/M01 A2997 RMK AO2 SLP156 T00441011

More Conditions Fewer Conditions

10-Day Weather Forecast

Almanac

Astronomy

Apr. 23, 2014 Rise Set
Actual Time 6:34 AM EDT 8:10 PM EDT
Civil Twilight 6:05 AM EDT 8:39 PM EDT
Nautical Twilight 5:30 AM EDT 9:14 PM EDT
Astronomical Twilight 4:54 AM EDT 9:51 PM EDT
Moon 3:05 AM EDT 2:17 PM EDT
Length of Visible Light 14h 33m
Length of Day
13h 36m
Tomorrow will be 2m 25s longer.
Last Quarter, 36% of the Moon is Illuminated
Today
Last Quarter
Apr 29
New
May 6
First Quarter
May 14
Full
May 21
Last Quarter

Today's Extremes

State Highs State Lows

Community

  • Earth Day Spectrum Ove' Blue
    Earth Day Spectrum Ove' Blue
  • April Sunset
    April Sunset
  • Waiting..
    Waiting..
  • Sunset...
    Sunset...
  • Happy outdoor day
    Happy outdoor day

WunderPhotos

Upload Photos

1,704,256 photos uploaded!

Nearby

Snow Depth

Station Depth Elevation
No new snow has been reported.

Coastal Water Temperatures

Place Temperature
No Stations Reporting

Earthquake Activity

City Distance Mag. Time & Date
No recent earthquake activity has been reported nearby.
Minimum magnitude displayed is 2.5.

Nearby Weather Stations

Station Location Temp. Windchill Dew Point Humidity Wind Precip. Elev Updated Type
Crawford Heights, Martins Ferry, OH 41.9 °F 40 °F 33 °F 71% NNE  at  3.2 mph - / hr 1109 ft 8:56 AM EDT Normal
Whitmar Hills, Wheeling, WV 40.5 °F 38 °F 33 °F 75% West  at  4.0 mph 0.00 in / hr 1060 ft 9:00 AM EDT Normal
Sunset Gardens, Wintersville, OH 39.3 °F 37 °F 32 °F 76% WSW  at  4.0 mph 0.00 in / hr 1150 ft 9:00 AM EDT Normal
West Alexander, West Alexander, PA 41.4 °F 41 °F 32 °F 70% West  at  1.7 mph - / hr 1191 ft 8:46 AM EDT Normal
Highland Hills, Follansbee, WV 39.9 °F 37 °F 33 °F 75% NNW  at  4.7 mph - / hr 968 ft 8:47 AM EDT Normal

Show More Stations Show Fewer Stations

What do you think?

We're not finished. Please let us know what you like, what you don't like, and what you are still missing.